Vremea mâine în Căzănești - Romania

Vrei sa afli care e starea vremii acum in Giurgiu - Romania? Dorim sa iti furnizam starea vremii pentru Giurgiu - Romania. Starea vremii Giurgiu - Romania pentru astazi.

Vremea mâine în Căzănești

Temperatura minimă:
10.1 °C

Temperatura maximă:
23.1 °C

Mâine va fi: Patchy rain nearby
Precipitații: 62 %
Umiditate: 63%
Viteza maximă vânt mâine:
23.4 km/h

Evoluția vremii in Căzănești pe ore mâine

Ora: 03:00
Temperatura: °C
Sansa de precipitatii: %
Ora Descriere Temp Se simte Precipitatii Umiditate Vant
00:00Senin12.1°10.7°0%76%SSE 13 KM/H
01:00Senin11.3°9.9°0%80%SSE 12.2 KM/H
02:00Senin10.9°9.5°0%82%S 11.2 KM/H
03:00Senin10.6°9.3°0%82%S 10.8 KM/H
04:00Senin10.4°0%81%SSE 10.8 KM/H
05:00Senin10.2°8.7°0%80%SSE 11.2 KM/H
06:00Senin10.1°8.7°0%78%SSE 10.8 KM/H
07:00Senin11.1°10.1°0%75%SSE 9.4 KM/H
08:00Senin13.1°12.4°0%68%SSE 9.4 KM/H
09:00Senin14.7°14.3°0%64%S 9.7 KM/H
10:00Senin16.6°16.6°0%59%S 11.5 KM/H
11:00Senin18.6°18.6°0%54%S 12.6 KM/H
12:00Senin20.7°20.7°0%49%SSE 13.3 KM/H
13:00Senin21.9°22°0%47%SSE 13.7 KM/H
14:00Senin22.6°24.5°0%46%SSE 14.4 KM/H
15:0022.9°24.5°0%45%SSE 14.4 KM/H
16:00Innorat23.1°24.6°0%44%SSE 14.4 KM/H
17:00Innorat23°24.5°0%45%SSE 14.4 KM/H
18:0022.2°24.4°0%49%SSE 15.8 KM/H
19:0020.3°20.3°0%58%SSE 18.7 KM/H
20:00Senin18.3°18.3°0%62%SE 21.6 KM/H
21:00Senin15.8°15.8°0%66%SE 23.4 KM/H
22:00Thundery outbreaks in nearby14.2°12.8°100%69%SE 18.4 KM/H
23:00Thundery outbreaks in nearby13.9°12.4°0%67%SE 18.4 KM/H




tutorials